sensor_id;sensor_type;location;lat;lon;timestamp;temperature;humidity
17762;DHT22;9005;48.838;10.112;2023-11-21T00:02:14;5.20;93.30
17762;DHT22;9005;48.838;10.112;2023-11-21T00:04:41;5.10;93.30
17762;DHT22;9005;48.838;10.112;2023-11-21T00:07:08;5.10;93.50
17762;DHT22;9005;48.838;10.112;2023-11-21T00:09:36;5.10;93.70
17762;DHT22;9005;48.838;10.112;2023-11-21T00:12:03;5.10;93.90
17762;DHT22;9005;48.838;10.112;2023-11-21T00:14:31;5.10;94.00
17762;DHT22;9005;48.838;10.112;2023-11-21T00:16:59;5.00;94.10
17762;DHT22;9005;48.838;10.112;2023-11-21T00:19:26;5.00;94.20
17762;DHT22;9005;48.838;10.112;2023-11-21T00:21:53;5.10;94.30
17762;DHT22;9005;48.838;10.112;2023-11-21T00:24:19;5.10;94.50
17762;DHT22;9005;48.838;10.112;2023-11-21T00:26:47;5.10;94.50
17762;DHT22;9005;48.838;10.112;2023-11-21T00:29:14;5.10;94.60
17762;DHT22;9005;48.838;10.112;2023-11-21T00:31:42;5.10;94.60
17762;DHT22;9005;48.838;10.112;2023-11-21T00:34:10;5.20;94.70
17762;DHT22;9005;48.838;10.112;2023-11-21T00:36:37;5.20;94.70
17762;DHT22;9005;48.838;10.112;2023-11-21T00:39:04;5.20;94.80
17762;DHT22;9005;48.838;10.112;2023-11-21T00:41:31;5.20;94.80
17762;DHT22;9005;48.838;10.112;2023-11-21T00:44:00;5.30;94.90
17762;DHT22;9005;48.838;10.112;2023-11-21T00:46:27;5.30;94.90
17762;DHT22;9005;48.838;10.112;2023-11-21T00:48:54;5.30;95.00
17762;DHT22;9005;48.838;10.112;2023-11-21T00:51:21;5.30;95.00
17762;DHT22;9005;48.838;10.112;2023-11-21T00:53:48;5.40;95.00
17762;DHT22;9005;48.838;10.112;2023-11-21T00:56:15;5.40;95.00
17762;DHT22;9005;48.838;10.112;2023-11-21T00:58:42;5.40;95.10
17762;DHT22;9005;48.838;10.112;2023-11-21T01:01:10;5.40;95.10
17762;DHT22;9005;48.838;10.112;2023-11-21T01:03:37;5.30;95.10
17762;DHT22;9005;48.838;10.112;2023-11-21T01:06:04;5.40;95.10
17762;DHT22;9005;48.838;10.112;2023-11-21T01:08:32;5.40;95.10
17762;DHT22;9005;48.838;10.112;2023-11-21T01:10:59;5.30;95.10
17762;DHT22;9005;48.838;10.112;2023-11-21T01:13:26;5.30;95.10
17762;DHT22;9005;48.838;10.112;2023-11-21T01:15:55;5.20;95.10
17762;DHT22;9005;48.838;10.112;2023-11-21T01:18:23;5.20;95.10
17762;DHT22;9005;48.838;10.112;2023-11-21T01:20:51;5.10;95.00
17762;DHT22;9005;48.838;10.112;2023-11-21T01:23:18;5.10;95.00
17762;DHT22;9005;48.838;10.112;2023-11-21T01:25:45;5.10;95.00
17762;DHT22;9005;48.838;10.112;2023-11-21T01:28:12;5.10;95.10
17762;DHT22;9005;48.838;10.112;2023-11-21T01:30:38;5.10;95.20
17762;DHT22;9005;48.838;10.112;2023-11-21T01:33:05;5.40;95.20
17762;DHT22;9005;48.838;10.112;2023-11-21T01:35:33;5.20;95.20
17762;DHT22;9005;48.838;10.112;2023-11-21T01:38:00;5.20;95.30
17762;DHT22;9005;48.838;10.112;2023-11-21T01:40:27;5.30;95.30
17762;DHT22;9005;48.838;10.112;2023-11-21T01:42:54;5.30;95.30
17762;DHT22;9005;48.838;10.112;2023-11-21T01:45:21;5.30;95.30
17762;DHT22;9005;48.838;10.112;2023-11-21T01:47:50;5.30;95.40
17762;DHT22;9005;48.838;10.112;2023-11-21T01:50:18;5.30;95.40
17762;DHT22;9005;48.838;10.112;2023-11-21T01:52:46;5.30;95.40
17762;DHT22;9005;48.838;10.112;2023-11-21T01:55:16;5.30;95.40
17762;DHT22;9005;48.838;10.112;2023-11-21T01:57:45;5.40;95.40
17762;DHT22;9005;48.838;10.112;2023-11-21T02:00:13;5.40;95.40
17762;DHT22;9005;48.838;10.112;2023-11-21T02:02:42;5.40;95.50
17762;DHT22;9005;48.838;10.112;2023-11-21T02:05:09;5.40;95.60
17762;DHT22;9005;48.838;10.112;2023-11-21T02:07:38;5.40;95.60
17762;DHT22;9005;48.838;10.112;2023-11-21T02:10:07;5.40;95.60
17762;DHT22;9005;48.838;10.112;2023-11-21T02:12:34;5.50;95.60
17762;DHT22;9005;48.838;10.112;2023-11-21T02:15:02;5.50;95.60
17762;DHT22;9005;48.838;10.112;2023-11-21T02:17:30;5.70;95.50
17762;DHT22;9005;48.838;10.112;2023-11-21T02:19:58;5.50;95.60
17762;DHT22;9005;48.838;10.112;2023-11-21T02:22:27;5.50;95.70
17762;DHT22;9005;48.838;10.112;2023-11-21T02:24:58;5.50;95.70
17762;DHT22;9005;48.838;10.112;2023-11-21T02:27:24;5.60;95.70
17762;DHT22;9005;48.838;10.112;2023-11-21T02:29:53;5.60;95.80
17762;DHT22;9005;48.838;10.112;2023-11-21T02:32:20;5.60;95.70
17762;DHT22;9005;48.838;10.112;2023-11-21T02:34:48;5.60;95.70
17762;DHT22;9005;48.838;10.112;2023-11-21T02:37:15;5.60;95.70
17762;DHT22;9005;48.838;10.112;2023-11-21T02:39:42;5.60;95.80
17762;DHT22;9005;48.838;10.112;2023-11-21T02:42:10;5.60;95.70
17762;DHT22;9005;48.838;10.112;2023-11-21T02:44:36;5.60;95.70
17762;DHT22;9005;48.838;10.112;2023-11-21T02:47:04;5.60;95.70
17762;DHT22;9005;48.838;10.112;2023-11-21T02:49:30;5.60;95.70
17762;DHT22;9005;48.838;10.112;2023-11-21T02:51:57;5.60;95.80
17762;DHT22;9005;48.838;10.112;2023-11-21T02:54:24;5.60;95.80
17762;DHT22;9005;48.838;10.112;2023-11-21T02:56:52;5.60;95.70
17762;DHT22;9005;48.838;10.112;2023-11-21T02:59:20;5.60;95.90
17762;DHT22;9005;48.838;10.112;2023-11-21T03:01:47;5.60;95.80
17762;DHT22;9005;48.838;10.112;2023-11-21T03:04:15;5.60;95.80
17762;DHT22;9005;48.838;10.112;2023-11-21T03:06:43;5.70;95.90
17762;DHT22;9005;48.838;10.112;2023-11-21T03:09:10;5.60;95.90
17762;DHT22;9005;48.838;10.112;2023-11-21T03:11:37;5.60;95.90
17762;DHT22;9005;48.838;10.112;2023-11-21T03:14:04;5.70;95.90
17762;DHT22;9005;48.838;10.112;2023-11-21T03:16:33;5.70;95.90
17762;DHT22;9005;48.838;10.112;2023-11-21T03:19:00;5.70;95.90
17762;DHT22;9005;48.838;10.112;2023-11-21T03:21:26;5.70;95.90
17762;DHT22;9005;48.838;10.112;2023-11-21T03:23:54;5.70;95.90
17762;DHT22;9005;48.838;10.112;2023-11-21T03:26:21;5.70;96.00
17762;DHT22;9005;48.838;10.112;2023-11-21T03:28:48;5.70;95.90
17762;DHT22;9005;48.838;10.112;2023-11-21T03:31:15;5.70;95.90
17762;DHT22;9005;48.838;10.112;2023-11-21T03:33:45;5.70;95.90
17762;DHT22;9005;48.838;10.112;2023-11-21T03:36:12;5.70;95.90
17762;DHT22;9005;48.838;10.112;2023-11-21T03:38:40;5.70;95.90
17762;DHT22;9005;48.838;10.112;2023-11-21T03:41:07;5.60;96.00
17762;DHT22;9005;48.838;10.112;2023-11-21T03:43:35;5.60;95.90
17762;DHT22;9005;48.838;10.112;2023-11-21T03:46:02;5.60;95.90
17762;DHT22;9005;48.838;10.112;2023-11-21T03:48:29;5.60;95.90
17762;DHT22;9005;48.838;10.112;2023-11-21T03:50:57;5.70;95.90
17762;DHT22;9005;48.838;10.112;2023-11-21T03:53:24;5.60;95.90
17762;DHT22;9005;48.838;10.112;2023-11-21T03:55:50;5.60;95.90
17762;DHT22;9005;48.838;10.112;2023-11-21T03:58:17;5.60;95.90
17762;DHT22;9005;48.838;10.112;2023-11-21T04:00:44;5.60;95.90
17762;DHT22;9005;48.838;10.112;2023-11-21T04:03:10;5.60;95.90
17762;DHT22;9005;48.838;10.112;2023-11-21T04:05:39;5.60;95.90
17762;DHT22;9005;48.838;10.112;2023-11-21T04:08:07;5.60;95.90
17762;DHT22;9005;48.838;10.112;2023-11-21T04:10:34;5.60;96.00
17762;DHT22;9005;48.838;10.112;2023-11-21T04:13:01;5.60;95.90
17762;DHT22;9005;48.838;10.112;2023-11-21T04:15:28;5.60;95.90
17762;DHT22;9005;48.838;10.112;2023-11-21T04:17:54;5.60;95.90
17762;DHT22;9005;48.838;10.112;2023-11-21T04:20:22;5.60;96.00
17762;DHT22;9005;48.838;10.112;2023-11-21T04:22:49;5.70;96.00
17762;DHT22;9005;48.838;10.112;2023-11-21T04:25:17;5.70;95.90
17762;DHT22;9005;48.838;10.112;2023-11-21T04:27:45;5.70;95.90
17762;DHT22;9005;48.838;10.112;2023-11-21T04:30:12;5.70;96.00
17762;DHT22;9005;48.838;10.112;2023-11-21T04:32:39;5.70;96.00
17762;DHT22;9005;48.838;10.112;2023-11-21T04:35:08;5.70;96.00
17762;DHT22;9005;48.838;10.112;2023-11-21T04:37:35;5.70;96.00
17762;DHT22;9005;48.838;10.112;2023-11-21T04:40:02;5.70;96.00
17762;DHT22;9005;48.838;10.112;2023-11-21T04:42:33;5.70;96.00
17762;DHT22;9005;48.838;10.112;2023-11-21T04:45:00;5.70;96.10
17762;DHT22;9005;48.838;10.112;2023-11-21T04:47:31;5.70;96.10
17762;DHT22;9005;48.838;10.112;2023-11-21T04:49:58;5.80;96.10
17762;DHT22;9005;48.838;10.112;2023-11-21T04:52:24;5.80;96.10
17762;DHT22;9005;48.838;10.112;2023-11-21T04:54:51;5.80;96.00
17762;DHT22;9005;48.838;10.112;2023-11-21T04:57:20;5.80;96.10
17762;DHT22;9005;48.838;10.112;2023-11-21T04:59:48;5.80;96.10
17762;DHT22;9005;48.838;10.112;2023-11-21T05:02:15;5.80;96.10
17762;DHT22;9005;48.838;10.112;2023-11-21T05:04:44;5.80;96.10
17762;DHT22;9005;48.838;10.112;2023-11-21T05:07:11;5.80;96.10
17762;DHT22;9005;48.838;10.112;2023-11-21T05:09:41;5.80;96.10
17762;DHT22;9005;48.838;10.112;2023-11-21T05:12:09;5.70;96.10
17762;DHT22;9005;48.838;10.112;2023-11-21T05:14:36;5.70;96.10
17762;DHT22;9005;48.838;10.112;2023-11-21T05:17:04;5.70;96.00
17762;DHT22;9005;48.838;10.112;2023-11-21T05:19:31;5.70;96.10
17762;DHT22;9005;48.838;10.112;2023-11-21T05:21:58;5.70;96.10
17762;DHT22;9005;48.838;10.112;2023-11-21T05:24:26;5.70;96.10
17762;DHT22;9005;48.838;10.112;2023-11-21T05:26:54;5.70;96.10
17762;DHT22;9005;48.838;10.112;2023-11-21T05:29:21;5.70;96.10
17762;DHT22;9005;48.838;10.112;2023-11-21T05:31:48;5.70;96.10
17762;DHT22;9005;48.838;10.112;2023-11-21T05:34:16;5.70;96.10
17762;DHT22;9005;48.838;10.112;2023-11-21T05:36:43;5.70;96.10
17762;DHT22;9005;48.838;10.112;2023-11-21T05:39:11;5.80;96.10
17762;DHT22;9005;48.838;10.112;2023-11-21T05:41:37;5.70;96.10
17762;DHT22;9005;48.838;10.112;2023-11-21T05:44:04;5.80;96.10
17762;DHT22;9005;48.838;10.112;2023-11-21T05:46:31;5.80;96.20
17762;DHT22;9005;48.838;10.112;2023-11-21T05:48:58;5.80;96.10
17762;DHT22;9005;48.838;10.112;2023-11-21T05:51:26;5.80;96.20
17762;DHT22;9005;48.838;10.112;2023-11-21T05:53:53;5.80;96.20
17762;DHT22;9005;48.838;10.112;2023-11-21T05:56:20;5.80;96.20
17762;DHT22;9005;48.838;10.112;2023-11-21T05:58:47;5.80;96.20
17762;DHT22;9005;48.838;10.112;2023-11-21T06:01:14;5.80;96.10
17762;DHT22;9005;48.838;10.112;2023-11-21T06:03:40;5.90;96.10
17762;DHT22;9005;48.838;10.112;2023-11-21T06:06:08;5.70;96.10
17762;DHT22;9005;48.838;10.112;2023-11-21T06:08:36;5.80;96.20
17762;DHT22;9005;48.838;10.112;2023-11-21T06:11:03;5.70;96.10
17762;DHT22;9005;48.838;10.112;2023-11-21T06:13:29;5.70;96.20
17762;DHT22;9005;48.838;10.112;2023-11-21T06:15:56;5.70;96.10
17762;DHT22;9005;48.838;10.112;2023-11-21T06:18:23;5.70;96.10
17762;DHT22;9005;48.838;10.112;2023-11-21T06:20:50;5.70;96.20
17762;DHT22;9005;48.838;10.112;2023-11-21T06:23:18;5.70;96.20
17762;DHT22;9005;48.838;10.112;2023-11-21T06:25:46;5.60;96.10
17762;DHT22;9005;48.838;10.112;2023-11-21T06:28:14;5.70;96.20
17762;DHT22;9005;48.838;10.112;2023-11-21T06:30:43;5.70;96.20
17762;DHT22;9005;48.838;10.112;2023-11-21T06:33:10;5.70;96.20
17762;DHT22;9005;48.838;10.112;2023-11-21T06:35:37;5.70;96.20
17762;DHT22;9005;48.838;10.112;2023-11-21T06:38:05;5.70;96.20
17762;DHT22;9005;48.838;10.112;2023-11-21T06:40:32;5.70;96.20
17762;DHT22;9005;48.838;10.112;2023-11-21T06:43:01;5.70;96.20
17762;DHT22;9005;48.838;10.112;2023-11-21T06:45:28;5.70;96.20
17762;DHT22;9005;48.838;10.112;2023-11-21T06:47:54;5.70;96.20
17762;DHT22;9005;48.838;10.112;2023-11-21T06:50:21;5.70;96.20
17762;DHT22;9005;48.838;10.112;2023-11-21T06:52:48;5.70;96.30
17762;DHT22;9005;48.838;10.112;2023-11-21T06:55:15;5.70;96.30
17762;DHT22;9005;48.838;10.112;2023-11-21T06:57:42;5.70;96.30
17762;DHT22;9005;48.838;10.112;2023-11-21T07:00:12;5.70;96.30
17762;DHT22;9005;48.838;10.112;2023-11-21T07:02:40;5.70;96.30
17762;DHT22;9005;48.838;10.112;2023-11-21T07:05:07;5.70;96.30
17762;DHT22;9005;48.838;10.112;2023-11-21T07:07:34;5.70;96.20
17762;DHT22;9005;48.838;10.112;2023-11-21T07:10:02;5.70;96.30
17762;DHT22;9005;48.838;10.112;2023-11-21T07:12:29;5.70;96.30
17762;DHT22;9005;48.838;10.112;2023-11-21T07:14:56;5.70;96.20
17762;DHT22;9005;48.838;10.112;2023-11-21T07:17:24;5.70;96.20
17762;DHT22;9005;48.838;10.112;2023-11-21T07:19:51;5.70;96.30
17762;DHT22;9005;48.838;10.112;2023-11-21T07:22:18;5.70;96.30
17762;DHT22;9005;48.838;10.112;2023-11-21T07:24:48;5.80;96.30
17762;DHT22;9005;48.838;10.112;2023-11-21T07:27:15;5.80;96.30
17762;DHT22;9005;48.838;10.112;2023-11-21T07:29:42;5.80;96.30
17762;DHT22;9005;48.838;10.112;2023-11-21T07:32:08;5.90;96.30
17762;DHT22;9005;48.838;10.112;2023-11-21T07:34:37;5.90;96.40
17762;DHT22;9005;48.838;10.112;2023-11-21T07:37:04;5.90;96.30
17762;DHT22;9005;48.838;10.112;2023-11-21T07:39:30;5.90;96.40
17762;DHT22;9005;48.838;10.112;2023-11-21T07:41:57;6.00;96.30
17762;DHT22;9005;48.838;10.112;2023-11-21T07:44:24;6.00;96.40
17762;DHT22;9005;48.838;10.112;2023-11-21T07:46:51;6.00;96.40
17762;DHT22;9005;48.838;10.112;2023-11-21T07:49:22;6.00;96.30
17762;DHT22;9005;48.838;10.112;2023-11-21T07:51:50;5.90;96.30
17762;DHT22;9005;48.838;10.112;2023-11-21T07:54:17;5.90;96.30
17762;DHT22;9005;48.838;10.112;2023-11-21T07:56:44;5.90;96.20
17762;DHT22;9005;48.838;10.112;2023-11-21T07:59:11;5.90;96.20
17762;DHT22;9005;48.838;10.112;2023-11-21T08:01:38;5.90;96.10
17762;DHT22;9005;48.838;10.112;2023-11-21T08:04:05;5.90;96.10
17762;DHT22;9005;48.838;10.112;2023-11-21T08:06:33;6.00;96.00
17762;DHT22;9005;48.838;10.112;2023-11-21T08:09:02;6.00;96.00
17762;DHT22;9005;48.838;10.112;2023-11-21T08:11:29;6.00;95.90
17762;DHT22;9005;48.838;10.112;2023-11-21T08:13:57;6.10;95.70
17762;DHT22;9005;48.838;10.112;2023-11-21T08:16:24;6.10;95.70
17762;DHT22;9005;48.838;10.112;2023-11-21T08:18:51;6.10;95.60
17762;DHT22;9005;48.838;10.112;2023-11-21T08:21:18;6.10;95.50
17762;DHT22;9005;48.838;10.112;2023-11-21T08:23:45;6.10;95.60
17762;DHT22;9005;48.838;10.112;2023-11-21T08:26:15;6.10;95.40
17762;DHT22;9005;48.838;10.112;2023-11-21T08:28:43;6.10;95.40
17762;DHT22;9005;48.838;10.112;2023-11-21T08:31:10;6.00;95.40
17762;DHT22;9005;48.838;10.112;2023-11-21T08:33:37;6.00;95.30
17762;DHT22;9005;48.838;10.112;2023-11-21T08:36:07;6.00;95.20
17762;DHT22;9005;48.838;10.112;2023-11-21T08:38:34;6.10;95.40
17762;DHT22;9005;48.838;10.112;2023-11-21T08:41:03;6.10;95.40
17762;DHT22;9005;48.838;10.112;2023-11-21T08:43:34;6.30;95.60
17762;DHT22;9005;48.838;10.112;2023-11-21T08:46:01;6.40;95.80
17762;DHT22;9005;48.838;10.112;2023-11-21T08:48:28;6.50;95.90
17762;DHT22;9005;48.838;10.112;2023-11-21T08:50:55;6.80;96.10
17762;DHT22;9005;48.838;10.112;2023-11-21T08:53:22;6.80;96.00
17762;DHT22;9005;48.838;10.112;2023-11-21T08:55:49;6.80;95.70
17762;DHT22;9005;48.838;10.112;2023-11-21T08:58:15;6.60;94.30
17762;DHT22;9005;48.838;10.112;2023-11-21T09:00:44;6.60;94.30
17762;DHT22;9005;48.838;10.112;2023-11-21T09:03:11;6.70;94.90
17762;DHT22;9005;48.838;10.112;2023-11-21T09:05:38;6.70;93.80
17762;DHT22;9005;48.838;10.112;2023-11-21T09:08:05;6.80;94.00
17762;DHT22;9005;48.838;10.112;2023-11-21T09:10:32;6.90;94.10
17762;DHT22;9005;48.838;10.112;2023-11-21T09:13:01;6.90;93.60
17762;DHT22;9005;48.838;10.112;2023-11-21T09:15:28;6.80;91.80
17762;DHT22;9005;48.838;10.112;2023-11-21T09:17:56;6.80;92.70
17762;DHT22;9005;48.838;10.112;2023-11-21T09:20:23;6.80;93.50
17762;DHT22;9005;48.838;10.112;2023-11-21T09:22:50;6.80;93.70
17762;DHT22;9005;48.838;10.112;2023-11-21T09:25:17;6.90;93.10
17762;DHT22;9005;48.838;10.112;2023-11-21T09:27:44;7.00;93.30
17762;DHT22;9005;48.838;10.112;2023-11-21T09:30:12;7.20;93.90
17762;DHT22;9005;48.838;10.112;2023-11-21T09:32:40;7.30;93.60
17762;DHT22;9005;48.838;10.112;2023-11-21T09:35:09;7.20;91.90
17762;DHT22;9005;48.838;10.112;2023-11-21T09:37:35;7.30;92.20
17762;DHT22;9005;48.838;10.112;2023-11-21T09:40:04;7.30;91.40
17762;DHT22;9005;48.838;10.112;2023-11-21T09:42:40;7.30;92.00
17762;DHT22;9005;48.838;10.112;2023-11-21T09:45:13;7.40;92.20
17762;DHT22;9005;48.838;10.112;2023-11-21T09:47:42;7.40;89.60
17762;DHT22;9005;48.838;10.112;2023-11-21T09:50:11;7.20;89.50
17762;DHT22;9005;48.838;10.112;2023-11-21T09:52:47;7.10;89.50
17762;DHT22;9005;48.838;10.112;2023-11-21T09:55:17;7.00;89.30
17762;DHT22;9005;48.838;10.112;2023-11-21T09:57:46;6.90;90.80
17762;DHT22;9005;48.838;10.112;2023-11-21T10:00:14;6.90;89.90
17762;DHT22;9005;48.838;10.112;2023-11-21T10:02:43;6.80;89.50
17762;DHT22;9005;48.838;10.112;2023-11-21T10:05:12;6.80;90.70
17762;DHT22;9005;48.838;10.112;2023-11-21T10:07:42;6.90;89.70
17762;DHT22;9005;48.838;10.112;2023-11-21T10:10:10;6.90;89.60
17762;DHT22;9005;48.838;10.112;2023-11-21T10:12:37;7.00;89.20
17762;DHT22;9005;48.838;10.112;2023-11-21T10:15:08;7.10;89.40
17762;DHT22;9005;48.838;10.112;2023-11-21T10:17:38;7.10;88.10
17762;DHT22;9005;48.838;10.112;2023-11-21T10:20:12;7.10;87.90
17762;DHT22;9005;48.838;10.112;2023-11-21T10:22:40;7.10;87.60
17762;DHT22;9005;48.838;10.112;2023-11-21T10:25:08;7.10;88.80
17762;DHT22;9005;48.838;10.112;2023-11-21T10:27:34;7.10;88.90
17762;DHT22;9005;48.838;10.112;2023-11-21T10:30:02;7.00;87.20
17762;DHT22;9005;48.838;10.112;2023-11-21T10:32:29;7.00;87.60
17762;DHT22;9005;48.838;10.112;2023-11-21T10:34:58;7.00;87.40
17762;DHT22;9005;48.838;10.112;2023-11-21T10:37:27;7.00;87.00
17762;DHT22;9005;48.838;10.112;2023-11-21T10:39:57;6.90;87.30
17762;DHT22;9005;48.838;10.112;2023-11-21T10:42:24;7.00;87.40
17762;DHT22;9005;48.838;10.112;2023-11-21T10:44:51;7.00;86.90
17762;DHT22;9005;48.838;10.112;2023-11-21T10:47:19;7.00;87.50
17762;DHT22;9005;48.838;10.112;2023-11-21T10:49:48;7.00;86.80
17762;DHT22;9005;48.838;10.112;2023-11-21T10:52:15;7.00;88.10
17762;DHT22;9005;48.838;10.112;2023-11-21T10:54:44;7.00;89.10
17762;DHT22;9005;48.838;10.112;2023-11-21T10:57:11;7.20;87.60
17762;DHT22;9005;48.838;10.112;2023-11-21T10:59:41;7.40;86.60
17762;DHT22;9005;48.838;10.112;2023-11-21T11:02:18;7.80;86.60
17762;DHT22;9005;48.838;10.112;2023-11-21T11:04:48;8.60;83.80
17762;DHT22;9005;48.838;10.112;2023-11-21T11:07:16;9.90;80.90
17762;DHT22;9005;48.838;10.112;2023-11-21T11:09:44;10.80;72.60
17762;DHT22;9005;48.838;10.112;2023-11-21T11:12:12;10.70;71.30
17762;DHT22;9005;48.838;10.112;2023-11-21T11:14:41;10.40;72.50
17762;DHT22;9005;48.838;10.112;2023-11-21T11:17:10;9.90;75.10
17762;DHT22;9005;48.838;10.112;2023-11-21T11:19:37;9.40;74.80
17762;DHT22;9005;48.838;10.112;2023-11-21T11:22:12;8.90;78.30
17762;DHT22;9005;48.838;10.112;2023-11-21T11:25:05;8.60;80.30
17762;DHT22;9005;48.838;10.112;2023-11-21T11:27:44;8.30;79.30
17762;DHT22;9005;48.838;10.112;2023-11-21T11:30:20;8.10;80.80
17762;DHT22;9005;48.838;10.112;2023-11-21T11:32:55;7.90;81.50
17762;DHT22;9005;48.838;10.112;2023-11-21T11:35:29;7.80;82.40
17762;DHT22;9005;48.838;10.112;2023-11-21T11:38:01;7.60;83.70
17762;DHT22;9005;48.838;10.112;2023-11-21T11:40:39;7.50;84.70
17762;DHT22;9005;48.838;10.112;2023-11-21T11:43:10;7.40;84.80
17762;DHT22;9005;48.838;10.112;2023-11-21T11:45:37;7.30;86.70
17762;DHT22;9005;48.838;10.112;2023-11-21T11:48:07;7.30;87.40
17762;DHT22;9005;48.838;10.112;2023-11-21T11:50:34;7.30;87.00
17762;DHT22;9005;48.838;10.112;2023-11-21T11:53:15;7.30;87.80
17762;DHT22;9005;48.838;10.112;2023-11-21T11:55:43;7.40;87.80
17762;DHT22;9005;48.838;10.112;2023-11-21T11:58:10;7.30;86.20
17762;DHT22;9005;48.838;10.112;2023-11-21T12:00:37;7.40;86.60
17762;DHT22;9005;48.838;10.112;2023-11-21T12:03:06;7.40;86.30
17762;DHT22;9005;48.838;10.112;2023-11-21T12:05:34;7.40;86.20
17762;DHT22;9005;48.838;10.112;2023-11-21T12:08:05;7.30;85.60
17762;DHT22;9005;48.838;10.112;2023-11-21T12:10:33;7.30;86.50
17762;DHT22;9005;48.838;10.112;2023-11-21T12:13:04;7.40;89.30
17762;DHT22;9005;48.838;10.112;2023-11-21T12:15:33;7.50;89.50
17762;DHT22;9005;48.838;10.112;2023-11-21T12:18:00;7.60;89.90
17762;DHT22;9005;48.838;10.112;2023-11-21T12:20:28;7.60;90.40
17762;DHT22;9005;48.838;10.112;2023-11-21T12:22:56;7.60;90.70
17762;DHT22;9005;48.838;10.112;2023-11-21T12:25:26;7.70;91.10
17762;DHT22;9005;48.838;10.112;2023-11-21T12:27:55;7.70;91.00
17762;DHT22;9005;48.838;10.112;2023-11-21T12:30:24;7.70;90.60
17762;DHT22;9005;48.838;10.112;2023-11-21T12:32:54;7.80;90.00
17762;DHT22;9005;48.838;10.112;2023-11-21T12:35:23;7.70;89.80
17762;DHT22;9005;48.838;10.112;2023-11-21T12:37:51;7.70;90.10
17762;DHT22;9005;48.838;10.112;2023-11-21T12:40:19;7.70;90.60
17762;DHT22;9005;48.838;10.112;2023-11-21T12:42:49;7.70;90.20
17762;DHT22;9005;48.838;10.112;2023-11-21T12:45:21;7.70;90.30
17762;DHT22;9005;48.838;10.112;2023-11-21T12:47:50;7.70;89.70
17762;DHT22;9005;48.838;10.112;2023-11-21T12:50:19;7.70;89.80
17762;DHT22;9005;48.838;10.112;2023-11-21T12:52:50;7.70;88.70
17762;DHT22;9005;48.838;10.112;2023-11-21T12:55:20;7.70;89.40
17762;DHT22;9005;48.838;10.112;2023-11-21T12:57:48;7.80;88.00
17762;DHT22;9005;48.838;10.112;2023-11-21T13:00:17;7.80;85.90
17762;DHT22;9005;48.838;10.112;2023-11-21T13:02:55;7.80;86.90
17762;DHT22;9005;48.838;10.112;2023-11-21T13:05:25;7.80;87.40
17762;DHT22;9005;48.838;10.112;2023-11-21T13:07:52;8.00;87.20
17762;DHT22;9005;48.838;10.112;2023-11-21T13:10:21;8.30;86.40
17762;DHT22;9005;48.838;10.112;2023-11-21T13:12:51;8.40;85.10
17762;DHT22;9005;48.838;10.112;2023-11-21T13:15:18;8.40;85.20
17762;DHT22;9005;48.838;10.112;2023-11-21T13:17:45;8.20;85.30
17762;DHT22;9005;48.838;10.112;2023-11-21T13:20:13;7.90;82.10
17762;DHT22;9005;48.838;10.112;2023-11-21T13:22:48;7.70;84.30
17762;DHT22;9005;48.838;10.112;2023-11-21T13:25:16;7.50;84.50
17762;DHT22;9005;48.838;10.112;2023-11-21T13:27:45;7.30;85.30
17762;DHT22;9005;48.838;10.112;2023-11-21T13:30:13;7.10;85.70
17762;DHT22;9005;48.838;10.112;2023-11-21T13:32:42;7.00;86.80
17762;DHT22;9005;48.838;10.112;2023-11-21T13:35:10;6.90;87.40
17762;DHT22;9005;48.838;10.112;2023-11-21T13:37:48;6.80;87.90
17762;DHT22;9005;48.838;10.112;2023-11-21T13:40:19;6.70;88.70
17762;DHT22;9005;48.838;10.112;2023-11-21T13:42:48;6.70;89.30
17762;DHT22;9005;48.838;10.112;2023-11-21T13:45:19;6.60;89.70
17762;DHT22;9005;48.838;10.112;2023-11-21T13:47:47;6.50;90.20
17762;DHT22;9005;48.838;10.112;2023-11-21T13:50:16;6.50;90.40
17762;DHT22;9005;48.838;10.112;2023-11-21T13:52:49;6.50;90.90
17762;DHT22;9005;48.838;10.112;2023-11-21T13:55:18;6.50;91.30
17762;DHT22;9005;48.838;10.112;2023-11-21T13:57:45;6.50;91.70
17762;DHT22;9005;48.838;10.112;2023-11-21T14:00:16;6.40;91.50
17762;DHT22;9005;48.838;10.112;2023-11-21T14:02:56;6.40;91.60
17762;DHT22;9005;48.838;10.112;2023-11-21T14:05:26;6.40;92.10
17762;DHT22;9005;48.838;10.112;2023-11-21T14:07:56;6.40;91.90
17762;DHT22;9005;48.838;10.112;2023-11-21T14:10:28;6.40;92.00
17762;DHT22;9005;48.838;10.112;2023-11-21T14:13:03;6.40;92.10
17762;DHT22;9005;48.838;10.112;2023-11-21T14:15:31;6.40;92.30
17762;DHT22;9005;48.838;10.112;2023-11-21T14:17:58;6.40;92.60
17762;DHT22;9005;48.838;10.112;2023-11-21T14:20:28;6.40;92.80
17762;DHT22;9005;48.838;10.112;2023-11-21T14:22:56;6.50;93.00
17762;DHT22;9005;48.838;10.112;2023-11-21T14:25:23;6.50;93.00
17762;DHT22;9005;48.838;10.112;2023-11-21T14:27:52;6.40;93.00
17762;DHT22;9005;48.838;10.112;2023-11-21T14:30:19;6.40;93.20
17762;DHT22;9005;48.838;10.112;2023-11-21T14:32:48;6.40;93.40
17762;DHT22;9005;48.838;10.112;2023-11-21T14:35:15;6.40;93.30
17762;DHT22;9005;48.838;10.112;2023-11-21T14:37:42;6.30;93.30
17762;DHT22;9005;48.838;10.112;2023-11-21T14:40:12;6.40;93.60
17762;DHT22;9005;48.838;10.112;2023-11-21T14:42:41;6.40;93.80
17762;DHT22;9005;48.838;10.112;2023-11-21T14:45:10;6.50;94.00
17762;DHT22;9005;48.838;10.112;2023-11-21T14:47:38;6.50;94.00
17762;DHT22;9005;48.838;10.112;2023-11-21T14:50:09;6.50;93.90
17762;DHT22;9005;48.838;10.112;2023-11-21T14:53:04;6.40;93.50
17762;DHT22;9005;48.838;10.112;2023-11-21T14:55:32;6.30;93.40
17762;DHT22;9005;48.838;10.112;2023-11-21T14:58:13;6.30;93.40
17762;DHT22;9005;48.838;10.112;2023-11-21T15:00:45;6.20;93.30
17762;DHT22;9005;48.838;10.112;2023-11-21T15:03:12;6.20;93.30
17762;DHT22;9005;48.838;10.112;2023-11-21T15:05:59;6.20;93.30
17762;DHT22;9005;48.838;10.112;2023-11-21T15:08:44;6.20;93.50
17762;DHT22;9005;48.838;10.112;2023-11-21T15:11:11;6.20;93.60
17762;DHT22;9005;48.838;10.112;2023-11-21T15:13:42;6.30;93.80
17762;DHT22;9005;48.838;10.112;2023-11-21T15:16:09;6.30;94.00
17762;DHT22;9005;48.838;10.112;2023-11-21T15:18:37;6.30;94.20
17762;DHT22;9005;48.838;10.112;2023-11-21T15:21:04;6.40;94.30
17762;DHT22;9005;48.838;10.112;2023-11-21T15:23:36;6.40;94.50
17762;DHT22;9005;48.838;10.112;2023-11-21T15:26:02;6.40;94.50
17762;DHT22;9005;48.838;10.112;2023-11-21T15:28:31;6.40;94.50
17762;DHT22;9005;48.838;10.112;2023-11-21T15:30:58;6.50;94.50
17762;DHT22;9005;48.838;10.112;2023-11-21T15:33:25;6.50;94.60
17762;DHT22;9005;48.838;10.112;2023-11-21T15:35:53;6.50;94.60
17762;DHT22;9005;48.838;10.112;2023-11-21T15:38:20;6.50;94.60
17762;DHT22;9005;48.838;10.112;2023-11-21T15:40:47;6.50;94.60
17762;DHT22;9005;48.838;10.112;2023-11-21T15:43:15;6.40;94.60
17762;DHT22;9005;48.838;10.112;2023-11-21T15:45:46;6.40;94.50
17762;DHT22;9005;48.838;10.112;2023-11-21T15:48:12;6.40;94.30
17762;DHT22;9005;48.838;10.112;2023-11-21T15:50:40;6.40;94.10
17762;DHT22;9005;48.838;10.112;2023-11-21T15:53:06;6.40;94.00